Time;durP1;ratioP1;P1;durP2;ratioP2;P2;SDS_P1;SDS_P2;PMS_P1;PMS_P2;Temp;Humidity;BMP_temperature;BMP_pressure;BME280_temperature;BME280_humidity;BME280_pressure;Samples;Min_cycle;Max_cycle;Signal;HPM_P1;HPM_P2
2021/03/08 00:02:25;;;;;;;12.77;6.07;;;;;;;0.25;100.00;98000.69;5050293;28;20435;-79
2021/03/08 00:04:53;;;;;;;13.70;6.22;;;;;;;0.17;100.00;97999.22;5054680;28;20067;-79
2021/03/08 00:07:19;;;;;;;12.25;5.63;;;;;;;0.13;100.00;98005.28;5056732;28;20330;-78
2021/03/08 00:09:45;;;;;;;15.40;6.07;;;;;;;0.05;100.00;97989.69;5052505;28;20049;-79
2021/03/08 00:12:12;;;;;;;15.18;6.43;;;;;;;0.03;100.00;97997.09;5033257;28;20051;-78
2021/03/08 00:14:39;;;;;;;12.75;6.18;;;;;;;-0.05;100.00;97996.44;5018604;28;20049;-78
2021/03/08 00:17:05;;;;;;;15.93;6.53;;;;;;;-0.11;100.00;98000.06;5050783;28;20493;-79
2021/03/08 00:19:33;;;;;;;10.60;6.18;;;;;;;-0.13;100.00;97983.50;5051212;28;20041;-78
2021/03/08 00:21:59;;;;;;;17.73;6.53;;;;;;;-0.14;100.00;97994.38;5038508;28;20488;-79
2021/03/08 00:24:25;;;;;;;14.57;6.43;;;;;;;-0.17;100.00;97986.88;5036031;28;20041;-80
2021/03/08 00:26:52;;;;;;;13.80;6.68;;;;;;;-0.17;100.00;97993.00;5036952;28;20063;-79
2021/03/08 00:29:18;;;;;;;16.48;5.90;;;;;;;-0.09;100.00;97989.16;5055951;28;20055;-80
2021/03/08 00:31:44;;;;;;;10.25;5.50;;;;;;;-0.07;100.00;97979.91;5055603;28;20151;-79
2021/03/08 00:34:13;;;;;;;11.40;6.13;;;;;;;-0.03;100.00;97978.34;5054783;28;20033;-79
2021/03/08 00:36:39;;;;;;;10.55;5.53;;;;;;;0.04;100.00;97978.22;5050431;28;20041;-79
2021/03/08 00:39:06;;;;;;;12.10;5.80;;;;;;;0.10;100.00;97976.47;5021323;28;20044;-79
2021/03/08 00:41:32;;;;;;;9.38;5.55;;;;;;;0.11;100.00;97981.53;5041230;28;20049;-79
2021/03/08 00:43:59;;;;;;;9.63;5.63;;;;;;;0.15;100.00;97987.19;5044875;28;20400;-79
2021/03/08 00:46:25;;;;;;;12.55;4.95;;;;;;;0.17;100.00;97979.78;5049836;28;20056;-80
2021/03/08 00:48:52;;;;;;;11.73;5.85;;;;;;;0.21;100.00;97981.72;5051345;28;20049;-80
2021/03/08 00:51:19;;;;;;;11.82;5.28;;;;;;;0.26;100.00;97967.72;5053526;28;20132;-78
2021/03/08 00:53:45;;;;;;;11.60;5.10;;;;;;;0.32;100.00;97974.72;5050856;28;20292;-78
2021/03/08 00:56:11;;;;;;;10.38;5.40;;;;;;;0.32;100.00;97969.38;5033585;28;20049;-79
2021/03/08 00:58:37;;;;;;;12.85;5.60;;;;;;;0.27;100.00;97963.97;5028914;28;20049;-79
2021/03/08 01:01:04;;;;;;;13.15;5.32;;;;;;;0.28;100.00;97965.59;5013809;28;20214;-79
2021/03/08 01:03:30;;;;;;;10.13;5.43;;;;;;;0.36;100.00;97962.53;5049498;28;20064;-78
2021/03/08 01:05:56;;;;;;;10.52;5.00;;;;;;;0.38;100.00;97961.25;5033099;28;20045;-79
2021/03/08 01:08:28;;;;;;;9.65;5.30;;;;;;;0.35;100.00;97953.75;5049807;28;20041;-79
2021/03/08 01:10:55;;;;;;;11.18;5.40;;;;;;;0.30;100.00;97951.00;5051938;28;20460;-79
2021/03/08 01:13:22;;;;;;;12.88;5.45;;;;;;;0.37;100.00;97942.84;5030544;28;20053;-79
2021/03/08 01:15:52;;;;;;;10.35;5.35;;;;;;;0.40;100.00;97950.34;5013268;28;20050;-79
2021/03/08 01:18:20;;;;;;;10.30;5.07;;;;;;;0.41;100.00;97951.97;5029055;28;20048;-79
2021/03/08 01:20:48;;;;;;;15.35;5.65;;;;;;;0.41;100.00;97960.75;5031556;28;20063;-79
2021/03/08 01:23:14;;;;;;;10.48;5.38;;;;;;;0.36;100.00;97947.34;5032641;28;20048;-79
2021/03/08 01:25:41;;;;;;;11.73;5.35;;;;;;;0.42;100.00;97942.91;5035595;28;20124;-79
2021/03/08 01:28:08;;;;;;;11.10;5.57;;;;;;;0.40;100.00;97958.34;5040802;28;20073;-79
2021/03/08 01:30:38;;;;;;;14.50;5.93;;;;;;;0.35;100.00;97947.59;5049988;28;20569;-79
2021/03/08 01:33:05;;;;;;;12.32;5.75;;;;;;;0.33;100.00;97944.38;5034390;28;20045;-79
2021/03/08 01:35:33;;;;;;;16.35;5.53;;;;;;;0.34;100.00;97948.66;5046651;28;20526;-79
2021/03/08 01:38:00;;;;;;;14.45;6.60;;;;;;;0.08;100.00;97941.31;5055387;28;20044;-79
2021/03/08 01:40:27;;;;;;;19.30;7.63;;;;;;;-0.01;100.00;97965.66;5054164;28;20060;-79
2021/03/08 01:42:55;;;;;;;16.00;7.55;;;;;;;-0.11;100.00;97956.66;5046931;28;20045;-79
2021/03/08 01:45:22;;;;;;;13.65;7.60;;;;;;;-0.06;100.00;97960.25;5033476;28;20096;-80
2021/03/08 01:47:50;;;;;;;17.92;7.50;;;;;;;-0.19;100.00;97951.72;5041087;28;20128;-80
2021/03/08 01:50:23;;;;;;;13.60;7.35;;;;;;;-0.11;100.00;97962.00;5055390;28;20056;-79
2021/03/08 01:52:51;;;;;;;15.60;8.18;;;;;;;-0.11;100.00;97954.00;5035280;28;20148;-79
2021/03/08 01:55:19;;;;;;;18.33;8.00;;;;;;;-0.16;100.00;97948.59;5033869;28;20698;-79
2021/03/08 01:57:45;;;;;;;15.30;8.32;;;;;;;-0.17;100.00;97961.09;5028859;28;20049;-79
2021/03/08 02:00:20;;;;;;;16.15;8.95;;;;;;;-0.23;100.00;97964.69;5033558;28;20087;-79
2021/03/08 02:02:47;;;;;;;17.88;9.18;;;;;;;-0.23;100.00;97972.66;5017631;28;20507;-79
2021/03/08 02:05:17;;;;;;;18.75;10.15;;;;;;;-0.32;100.00;97960.81;5053819;28;20555;-79
2021/03/08 02:07:44;;;;;;;20.00;10.45;;;;;;;-0.41;100.00;97974.72;5053375;28;20048;-79
2021/03/08 02:10:12;;;;;;;21.60;10.20;;;;;;;-0.41;100.00;97975.50;5054153;28;20051;-79
2021/03/08 02:12:47;;;;;;;24.38;10.98;;;;;;;-0.48;100.00;97972.19;5052662;28;20053;-79
2021/03/08 02:15:19;;;;;;;21.33;11.05;;;;;;;-0.47;100.00;97973.81;5053902;28;20381;-80
2021/03/08 02:18:11;;;;;;;23.48;11.90;;;;;;;-0.46;100.00;97970.09;5056938;28;20049;-78
2021/03/08 02:20:57;;;;;;;21.33;11.80;;;;;;;-0.50;100.00;97955.66;5060391;28;20068;-78
2021/03/08 02:23:45;;;;;;;22.67;11.93;;;;;;;-0.52;100.00;97971.06;5046158;28;20033;-79
2021/03/08 02:26:14;;;;;;;27.17;11.38;;;;;;;-0.50;100.00;97968.16;5049978;28;20445;-80
2021/03/08 02:28:46;;;;;;;22.27;11.23;;;;;;;-0.58;100.00;97966.66;5043223;28;20055;-80
2021/03/08 02:31:15;;;;;;;25.15;12.20;;;;;;;-0.62;100.00;97966.31;5032259;28;20378;-79
2021/03/08 02:33:50;;;;;;;26.30;12.75;;;;;;;-0.63;100.00;97969.22;5017915;28;20504;-79
2021/03/08 02:36:18;;;;;;;26.40;13.15;;;;;;;-0.58;100.00;97971.19;5033198;28;20418;-79
2021/03/08 02:38:51;;;;;;;28.15;13.60;;;;;;;-0.62;100.00;97963.66;5034486;28;20307;-79
2021/03/08 02:41:20;;;;;;;22.92;12.90;;;;;;;-0.62;100.00;97971.63;5034319;28;20053;-80
2021/03/08 02:43:59;;;;;;;30.75;14.15;;;;;;;-0.60;100.00;97968.75;5017907;28;20045;-80
2021/03/08 02:46:34;;;;;;;27.75;13.90;;;;;;;-0.53;100.00;97974.75;5034671;28;20045;-80
2021/03/08 02:49:07;;;;;;;31.55;14.20;;;;;;;-0.57;100.00;97968.31;5055028;28;20400;-79
2021/03/08 02:51:39;;;;;;;29.30;13.55;;;;;;;-0.63;100.00;97974.53;5033455;28;20038;-80
2021/03/08 02:54:07;;;;;;;33.08;14.70;;;;;;;-0.56;100.00;97964.56;5049566;28;20041;-80
2021/03/08 02:56:35;;;;;;;31.88;14.52;;;;;;;-0.57;100.00;97975.47;5053556;28;20135;-79
2021/03/08 02:59:03;;;;;;;30.05;14.93;;;;;;;-0.54;100.00;97972.34;5054347;28;20580;-79
2021/03/08 03:01:33;;;;;;;30.80;14.50;;;;;;;-0.58;100.00;97960.53;5032763;28;20055;-79
2021/03/08 03:04:01;;;;;;;34.50;15.30;;;;;;;-0.57;100.00;97964.81;5033660;28;20048;-79
2021/03/08 03:06:33;;;;;;;27.85;15.07;;;;;;;-0.58;100.00;97969.34;5033331;28;20076;-78
2021/03/08 03:09:05;;;;;;;35.00;15.52;;;;;;;-0.62;100.00;97965.53;5052028;28;20060;-78
2021/03/08 03:11:33;;;;;;;27.98;14.88;;;;;;;-0.57;100.00;97970.97;5033242;28;20436;-79
2021/03/08 03:14:00;;;;;;;30.70;15.68;;;;;;;-0.50;100.00;97966.31;5033325;28;20433;-79
2021/03/08 03:16:28;;;;;;;35.78;15.73;;;;;;;-0.51;100.00;97977.97;5036754;28;20048;-79
2021/03/08 03:18:56;;;;;;;30.60;15.82;;;;;;;-0.48;100.00;97968.72;5052304;28;20065;-79
2021/03/08 03:21:27;;;;;;;35.03;17.10;;;;;;;-0.51;100.00;97967.34;5054215;28;20037;-79
2021/03/08 03:23:56;;;;;;;29.73;16.10;;;;;;;-0.49;100.00;97967.91;5053926;28;20037;-79
2021/03/08 03:26:26;;;;;;;38.78;17.88;;;;;;;-0.44;100.00;97978.63;5053347;28;20226;-79
2021/03/08 03:28:53;;;;;;;31.05;16.23;;;;;;;-0.48;100.00;97966.88;5053815;28;20053;-79
2021/03/08 03:31:29;;;;;;;33.03;17.88;;;;;;;-0.41;100.00;97980.03;5051387;28;20059;-79
2021/03/08 03:33:57;;;;;;;39.10;18.02;;;;;;;-0.40;100.00;97986.97;5034663;28;20045;-78
2021/03/08 03:36:25;;;;;;;35.28;18.15;;;;;;;-0.35;100.00;97992.38;5050737;28;20041;-78
2021/03/08 03:38:53;;;;;;;40.08;19.02;;;;;;;-0.35;100.00;97987.88;5052902;28;20059;-79
2021/03/08 03:41:19;;;;;;;41.95;19.33;;;;;;;-0.34;100.00;97992.16;5053263;28;20068;-79
2021/03/08 03:43:45;;;;;;;44.45;19.58;;;;;;;-0.36;100.00;97991.56;5054499;28;20037;-79
2021/03/08 03:46:12;;;;;;;41.20;19.10;;;;;;;-0.35;100.00;97987.88;5047464;28;20069;-80
2021/03/08 03:48:38;;;;;;;47.75;21.00;;;;;;;-0.30;100.00;97987.97;5026839;28;20488;-80
2021/03/08 03:51:05;;;;;;;35.80;19.80;;;;;;;-0.26;100.00;97989.09;5041269;28;20064;-79
2021/03/08 03:53:35;;;;;;;40.38;20.00;;;;;;;-0.23;100.00;97988.63;5034768;28;20037;-79
2021/03/08 03:56:06;;;;;;;41.45;20.35;;;;;;;-0.20;100.00;97990.00;5034666;28;20520;-78
2021/03/08 03:58:51;;;;;;;44.15;20.88;;;;;;;-0.21;100.00;97996.38;5014990;28;20046;-79
2021/03/08 04:01:24;;;;;;;39.97;20.20;;;;;;;-0.26;100.00;97981.13;5031726;28;20049;-78
2021/03/08 04:04:05;;;;;;;38.33;19.95;;;;;;;-0.21;100.00;97985.75;5033137;28;20300;-78
2021/03/08 04:06:40;;;;;;;38.17;19.52;;;;;;;-0.22;100.00;97998.25;5028209;28;20053;-78
2021/03/08 04:09:11;;;;;;;42.10;19.85;;;;;;;-0.19;100.00;97997.78;5033623;28;20051;-79
2021/03/08 04:11:39;;;;;;;40.28;19.63;;;;;;;-0.13;100.00;98006.66;5035263;28;20045;-79
2021/03/08 04:14:07;;;;;;;46.30;20.48;;;;;;;-0.14;100.00;97997.06;5032882;28;20139;-79
2021/03/08 04:16:42;;;;;;;44.63;19.80;;;;;;;-0.10;100.00;98001.66;5031179;28;20069;-79
2021/03/08 04:19:15;;;;;;;41.55;20.95;;;;;;;-0.10;100.00;98011.47;5032886;28;20443;-79
2021/03/08 04:21:42;;;;;;;43.58;20.27;;;;;;;-0.12;100.00;98014.38;5032880;28;20041;-78
2021/03/08 04:24:13;;;;;;;45.65;21.30;;;;;;;-0.14;100.00;98008.50;5000922;28;20615;-79
2021/03/08 04:26:40;;;;;;;47.95;20.85;;;;;;;-0.11;100.00;98015.22;5016899;28;20053;-79
2021/03/08 04:29:08;;;;;;;47.20;22.55;;;;;;;-0.07;100.00;98011.81;5018295;28;20037;-80
2021/03/08 04:31:36;;;;;;;48.03;21.98;;;;;;;-0.04;100.00;98016.69;5034352;28;20045;-79
2021/03/08 04:34:03;;;;;;;39.17;20.20;;;;;;;0.03;100.00;98026.38;5032306;28;20052;-78
2021/03/08 04:36:31;;;;;;;45.85;22.23;;;;;;;0.06;100.00;98028.53;5048094;23;20060;-76
2021/03/08 04:38:58;;;;;;;43.92;22.63;;;;;;;0.04;100.00;98026.13;5032555;28;20049;-77
2021/03/08 04:41:28;;;;;;;39.53;21.08;;;;;;;-0.06;100.00;98012.63;5032988;28;20042;-77
2021/03/08 04:44:02;;;;;;;44.58;22.20;;;;;;;-0.02;100.00;98030.53;5036280;28;20037;-78
2021/03/08 04:46:29;;;;;;;48.92;22.23;;;;;;;-0.02;100.00;98024.41;5031641;28;20041;-78
2021/03/08 04:48:57;;;;;;;51.85;23.38;;;;;;;0.00;100.00;98015.13;5037842;28;20065;-79
2021/03/08 04:51:24;;;;;;;49.83;23.92;;;;;;;0.04;100.00;98022.66;5038981;28;20073;-78
2021/03/08 04:53:52;;;;;;;50.85;23.25;;;;;;;-0.01;100.00;98026.84;5040056;28;20065;-78
2021/03/08 04:56:32;;;;;;;50.67;24.65;;;;;;;0.03;100.00;98021.06;5040327;28;20050;-78
2021/03/08 04:59:02;;;;;;;53.65;24.15;;;;;;;0.09;100.00;98014.75;5043304;28;20075;-78
2021/03/08 05:01:33;;;;;;;55.03;24.17;;;;;;;0.05;100.00;98029.59;5050301;28;20107;-78
2021/03/08 05:04:02;;;;;;;49.17;22.58;;;;;;;0.03;100.00;98031.69;5053717;28;20102;-78
2021/03/08 05:06:29;;;;;;;46.67;22.40;;;;;;;0.00;100.00;98033.00;5041522;28;20128;-78
2021/03/08 05:08:57;;;;;;;45.20;23.33;;;;;;;-0.05;100.00;98016.91;5044168;28;20053;-76
2021/03/08 05:11:23;;;;;;;47.53;21.55;;;;;;;-0.02;100.00;98022.56;5041894;28;20041;-79
2021/03/08 05:13:54;;;;;;;47.40;22.48;;;;;;;0.00;100.00;98025.78;5036495;28;20045;-79
2021/03/08 05:16:22;;;;;;;47.75;23.25;;;;;;;-0.08;100.00;98034.16;5020963;28;20532;-77
2021/03/08 05:18:50;;;;;;;47.17;23.13;;;;;;;-0.02;100.00;98025.22;5025249;28;20475;-77
2021/03/08 05:21:18;;;;;;;48.20;24.05;;;;;;;0.00;100.00;98036.44;5032879;28;20037;-77
2021/03/08 05:23:46;;;;;;;48.40;23.83;;;;;;;-0.03;100.00;98023.59;5032142;28;20065;-76
2021/03/08 05:26:15;;;;;;;50.10;24.45;;;;;;;0.00;100.00;98043.63;5023784;28;20046;-76
2021/03/08 05:28:42;;;;;;;54.50;24.33;;;;;;;0.09;100.00;98049.38;5022569;28;20060;-77
2021/03/08 05:31:10;;;;;;;42.58;21.27;;;;;;;0.07;100.00;98038.16;5023014;28;20040;-78
2021/03/08 05:33:38;;;;;;;46.67;21.38;;;;;;;-0.04;100.00;98031.81;5032137;28;20049;-77
2021/03/08 05:36:07;;;;;;;43.80;20.70;;;;;;;-0.05;100.00;98035.53;5032361;28;20049;-77
2021/03/08 05:38:33;;;;;;;45.88;21.70;;;;;;;0.04;100.00;98042.09;5032495;28;20047;-76
2021/03/08 05:41:12;;;;;;;52.90;22.77;;;;;;;0.08;100.00;98042.44;5032890;28;20056;-78
2021/03/08 05:43:42;;;;;;;47.55;23.42;;;;;;;0.02;100.00;98043.38;5032496;28;20045;-77
2021/03/08 05:46:16;;;;;;;44.95;22.55;;;;;;;0.05;100.00;98050.91;5031710;28;20099;-78
2021/03/08 05:49:25;;;;;;;49.80;23.35;;;;;;;0.06;100.00;98055.97;5032058;28;20216;-77
2021/03/08 05:52:07;;;;;;;49.38;24.63;;;;;;;0.12;100.00;98057.69;5043551;28;20041;-78
2021/03/08 05:55:03;;;;;;;48.15;22.98;;;;;;;0.11;100.00;98052.59;5024866;28;20041;-78
2021/03/08 05:58:01;;;;;;;44.40;21.45;;;;;;;0.11;100.00;98056.06;5016574;28;20075;-79
2021/03/08 06:01:02;;;;;;;46.95;22.65;;;;;;;0.10;100.00;98059.78;5023711;28;20038;-79
2021/03/08 06:03:37;;;;;;;47.83;22.85;;;;;;;0.14;100.00;98052.94;5021793;28;20096;-77
2021/03/08 06:06:32;;;;;;;50.50;23.65;;;;;;;0.14;100.00;98057.44;5025681;28;20870;-78
2021/03/08 06:09:18;;;;;;;44.83;21.45;;;;;;;0.17;100.00;98059.63;5025719;28;20512;-78
2021/03/08 06:11:51;;;;;;;50.13;23.25;;;;;;;0.19;100.00;98070.84;5032069;28;20049;-78
2021/03/08 06:14:22;;;;;;;53.28;25.25;;;;;;;0.21;100.00;98063.44;5032197;28;20128;-77
2021/03/08 06:16:49;;;;;;;54.72;25.38;;;;;;;0.21;100.00;98069.56;5029252;28;20099;-77
2021/03/08 06:19:17;;;;;;;55.50;24.85;;;;;;;0.24;100.00;98066.44;5030686;28;20099;-77
2021/03/08 06:21:48;;;;;;;43.03;21.63;;;;;;;0.24;100.00;98078.94;5032189;28;20428;-77
2021/03/08 06:24:15;;;;;;;51.92;22.77;;;;;;;0.29;100.00;98087.00;5032113;28;20042;-77
2021/03/08 06:26:44;;;;;;;47.72;23.88;;;;;;;0.30;100.00;98080.66;5031422;28;20048;-77
2021/03/08 06:29:12;;;;;;;47.05;23.65;;;;;;;0.32;100.00;98089.19;5029856;28;20444;-78
2021/03/08 06:31:38;;;;;;;47.83;23.48;;;;;;;0.37;100.00;98102.59;5030520;28;20041;-77
2021/03/08 06:34:06;;;;;;;48.53;22.92;;;;;;;0.47;100.00;98102.78;5031676;28;20516;-77
2021/03/08 06:36:33;;;;;;;43.58;21.67;;;;;;;0.47;100.00;98108.13;5030982;28;20038;-77
2021/03/08 06:38:59;;;;;;;54.03;23.25;;;;;;;0.40;100.00;98112.78;5030195;28;20052;-77
2021/03/08 06:41:26;;;;;;;60.45;27.42;;;;;;;0.36;100.00;98111.66;5017682;28;20053;-77
2021/03/08 06:43:53;;;;;;;66.60;27.13;;;;;;;0.26;100.00;98100.81;5032798;28;20090;-77
2021/03/08 06:46:20;;;;;;;76.22;29.98;;;;;;;0.31;100.00;98111.56;5022023;28;20519;-77
2021/03/08 06:48:46;;;;;;;76.20;30.70;;;;;;;0.36;100.00;98117.75;5021698;28;20042;-76
2021/03/08 06:51:17;;;;;;;76.32;31.05;;;;;;;0.24;100.00;98117.00;5020126;28;20063;-75
2021/03/08 06:53:45;;;;;;;81.80;32.95;;;;;;;0.26;100.00;98124.78;5040164;28;20053;-76
2021/03/08 06:56:22;;;;;;;104.00;34.33;;;;;;;0.28;100.00;98125.34;5038180;28;20049;-77
2021/03/08 06:59:10;;;;;;;99.30;34.33;;;;;;;0.32;100.00;98134.47;5037022;28;20049;-77
2021/03/08 07:01:40;;;;;;;97.40;34.80;;;;;;;0.31;100.00;98119.56;5032330;28;20064;-76
2021/03/08 07:04:21;;;;;;;95.22;34.60;;;;;;;0.26;100.00;98130.09;5032636;28;20041;-77
2021/03/08 07:07:05;;;;;;;99.53;36.58;;;;;;;0.34;100.00;98140.34;5029694;28;20060;-77
2021/03/08 07:09:48;;;;;;;124.05;36.80;;;;;;;0.31;100.00;98132.88;5031268;28;20038;-77
2021/03/08 07:12:15;;;;;;;114.45;35.10;;;;;;;0.44;100.00;98144.03;5038226;28;20482;-77
2021/03/08 07:14:45;;;;;;;109.53;37.28;;;;;;;0.44;100.00;98140.56;5035689;28;20096;-77
2021/03/08 07:17:34;;;;;;;100.47;35.88;;;;;;;0.51;100.00;98146.56;5041140;28;20060;-76
2021/03/08 07:20:08;;;;;;;96.30;36.72;;;;;;;0.52;100.00;98154.28;5040243;28;20041;-77
2021/03/08 07:22:50;;;;;;;126.23;34.97;;;;;;;0.49;100.00;98160.09;5036391;28;20076;-77
2021/03/08 07:25:31;;;;;;;123.60;34.00;;;;;;;0.36;100.00;98155.03;5036679;28;20036;-77
2021/03/08 07:28:03;;;;;;;119.78;35.13;;;;;;;0.39;100.00;98162.56;5032397;28;20033;-78
2021/03/08 07:30:30;;;;;;;144.02;36.50;;;;;;;0.40;100.00;98174.03;5035118;28;20046;-77
2021/03/08 07:33:04;;;;;;;120.18;37.13;;;;;;;0.44;100.00;98169.88;5033092;28;20447;-77
2021/03/08 07:35:53;;;;;;;115.20;35.70;;;;;;;0.59;100.00;98172.81;5030950;28;20121;-77
2021/03/08 07:38:40;;;;;;;123.70;36.65;;;;;;;0.66;100.00;98170.81;5029126;28;20443;-76
2021/03/08 07:41:13;;;;;;;114.97;35.70;;;;;;;0.64;100.00;98167.59;5030245;28;20555;-77
2021/03/08 07:43:44;;;;;;;156.13;34.70;;;;;;;0.53;100.00;98174.56;5029682;28;20033;-76
2021/03/08 07:46:30;;;;;;;100.90;33.45;;;;;;;0.59;100.00;98178.16;5029274;28;20069;-79
2021/03/08 07:48:58;;;;;;;133.98;34.08;;;;;;;0.55;100.00;98179.66;5032782;28;20046;-77
2021/03/08 07:51:25;;;;;;;111.50;33.00;;;;;;;0.50;100.00;98166.22;5021880;28;20088;-79
2021/03/08 07:54:06;;;;;;;119.05;34.28;;;;;;;0.53;100.00;98184.41;5032145;28;20513;-78
2021/03/08 07:56:34;;;;;;;89.05;32.40;;;;;;;0.49;100.00;98175.28;5037170;28;20044;-78
2021/03/08 07:59:01;;;;;;;104.50;32.85;;;;;;;0.59;100.00;98186.91;5029591;28;20045;-78
2021/03/08 08:01:27;;;;;;;88.82;32.53;;;;;;;0.66;100.00;98180.66;5029417;28;20543;-78
2021/03/08 08:03:54;;;;;;;81.97;30.23;;;;;;;0.67;100.00;98179.63;5029599;28;20041;-78
2021/03/08 08:06:23;;;;;;;84.07;30.00;;;;;;;0.76;100.00;98184.31;5029168;28;20120;-76
2021/03/08 08:08:55;;;;;;;90.07;30.30;;;;;;;0.68;100.00;98171.38;5029105;28;20513;-79
2021/03/08 08:11:26;;;;;;;74.40;28.00;;;;;;;0.72;100.00;98182.38;5028911;28;20061;-79
2021/03/08 08:14:00;;;;;;;69.53;28.50;;;;;;;0.73;100.00;98179.47;5031282;28;20040;-78
2021/03/08 08:16:30;;;;;;;73.75;27.13;;;;;;;0.74;100.00;98173.09;5030626;28;20048;-77
2021/03/08 08:19:03;;;;;;;90.60;27.92;;;;;;;0.77;100.00;98166.47;5032231;28;20034;-77
2021/03/08 08:21:35;;;;;;;72.47;27.90;;;;;;;0.85;100.00;98188.19;5049594;28;20543;-78
2021/03/08 08:24:04;;;;;;;79.90;27.63;;;;;;;0.79;100.00;98191.84;5049630;28;20412;-78
2021/03/08 08:26:32;;;;;;;79.18;29.40;;;;;;;0.77;100.00;98188.63;5050127;28;20124;-78
2021/03/08 08:28:59;;;;;;;96.95;28.65;;;;;;;0.80;100.00;98198.78;5050222;28;20041;-78
2021/03/08 08:31:27;;;;;;;73.25;28.23;;;;;;;0.86;100.00;98197.81;5050357;28;20044;-78
2021/03/08 08:33:54;;;;;;;91.60;29.25;;;;;;;0.85;100.00;98201.53;5051936;28;20037;-78
2021/03/08 08:36:24;;;;;;;95.72;29.85;;;;;;;0.84;100.00;98191.13;5053434;28;20091;-77
2021/03/08 08:38:53;;;;;;;79.55;29.83;;;;;;;0.89;100.00;98197.34;5054735;28;20049;-78
2021/03/08 08:41:26;;;;;;;72.78;29.10;;;;;;;0.99;100.00;98202.88;5054559;28;20121;-77
2021/03/08 08:44:15;;;;;;;87.03;28.90;;;;;;;1.12;100.00;98210.56;5053574;28;20043;-78
2021/03/08 08:46:45;;;;;;;87.47;27.50;;;;;;;1.11;100.00;98211.59;5032059;28;20045;-78
2021/03/08 08:49:19;;;;;;;64.05;25.48;;;;;;;1.08;100.00;98208.63;5034102;28;20041;-77
2021/03/08 08:51:46;;;;;;;78.22;25.23;;;;;;;1.09;100.00;98212.88;5033848;28;20520;-78
2021/03/08 08:54:28;;;;;;;54.47;23.30;;;;;;;1.08;100.00;98205.97;5032636;28;20037;-77
2021/03/08 08:56:58;;;;;;;53.13;23.48;;;;;;;1.15;100.00;98209.28;5033105;28;20052;-77
2021/03/08 08:59:27;;;;;;;53.15;23.83;;;;;;;1.20;100.00;98212.03;5034166;28;20065;-78
2021/03/08 09:02:23;;;;;;;52.95;22.92;;;;;;;1.20;100.00;98215.50;5034101;28;20188;-77
2021/03/08 09:04:50;;;;;;;44.42;22.45;;;;;;;1.27;100.00;98208.16;5032691;28;20401;-78
2021/03/08 09:07:18;;;;;;;50.72;23.33;;;;;;;1.25;100.00;98220.94;5016216;28;20045;-77
2021/03/08 09:09:49;;;;;;;49.28;22.27;;;;;;;1.34;100.00;98215.19;5014440;28;20532;-78
2021/03/08 09:12:43;;;;;;;48.47;23.23;;;;;;;1.21;100.00;98219.00;5005795;28;20119;-77
2021/03/08 09:15:22;;;;;;;57.47;25.85;;;;;;;1.30;100.00;98224.72;5033156;28;20095;-78
2021/03/08 09:17:56;;;;;;;63.13;27.05;;;;;;;1.31;100.00;98224.50;5031055;28;20049;-77
2021/03/08 09:20:28;;;;;;;53.88;24.42;;;;;;;1.22;100.00;98226.75;5032891;28;20103;-77
2021/03/08 09:22:58;;;;;;;49.58;23.20;;;;;;;1.34;100.00;98232.03;5032586;28;20373;-77
2021/03/08 09:25:28;;;;;;;45.22;21.55;;;;;;;1.36;100.00;98235.25;5032856;28;20504;-76
2021/03/08 09:28:11;;;;;;;49.88;22.40;;;;;;;1.55;100.00;98233.16;5032787;28;20408;-77
2021/03/08 09:30:43;;;;;;;47.90;22.23;;;;;;;1.81;100.00;98227.16;5032585;28;20045;-77
2021/03/08 09:33:12;;;;;;;41.92;20.65;;;;;;;1.80;100.00;98222.88;5032558;28;20084;-77
2021/03/08 09:35:45;;;;;;;41.38;20.65;;;;;;;1.90;100.00;98236.38;5033048;28;20041;-78
2021/03/08 09:38:24;;;;;;;137.05;26.73;;;;;;;2.08;100.00;98228.09;5033261;28;20053;-76
2021/03/08 09:40:58;;;;;;;40.72;18.90;;;;;;;2.18;100.00;98222.09;5015775;28;20046;-77
2021/03/08 09:43:27;;;;;;;42.15;19.77;;;;;;;2.35;100.00;98230.84;5032499;28;20046;-77
2021/03/08 09:46:13;;;;;;;38.50;17.92;;;;;;;2.68;100.00;98227.28;5028745;28;20052;-76
2021/03/08 09:48:43;;;;;;;34.55;17.38;;;;;;;2.87;100.00;98213.31;5030956;28;20076;-77
2021/03/08 09:51:18;;;;;;;36.92;16.30;;;;;;;3.11;100.00;98224.53;5031421;28;20404;-76
2021/03/08 09:53:46;;;;;;;27.85;14.65;;;;;;;3.17;100.00;98218.19;5031660;28;20103;-76
2021/03/08 09:56:17;;;;;;;30.63;14.82;;;;;;;3.37;100.00;98209.53;5031813;28;20053;-76
2021/03/08 09:58:44;;;;;;;31.63;14.80;;;;;;;3.45;100.00;98199.16;5031096;28;20057;-77
2021/03/08 10:01:22;;;;;;;25.52;13.50;;;;;;;3.58;100.00;98198.75;5031122;28;20038;-77
2021/03/08 10:03:50;;;;;;;31.60;14.73;;;;;;;3.57;100.00;98204.34;5031370;28;20084;-77
2021/03/08 10:06:37;;;;;;;30.58;13.68;;;;;;;3.77;100.00;98210.66;5031497;28;20076;-78
2021/03/08 10:09:21;;;;;;;32.35;16.05;;;;;;;3.91;100.00;98204.84;5031213;28;20049;-76
2021/03/08 10:11:48;;;;;;;30.48;12.82;;;;;;;3.87;100.00;98206.44;5030874;28;20060;-77
2021/03/08 10:14:30;;;;;;;25.17;13.63;;;;;;;3.94;100.00;98209.69;5031612;28;20045;-74
2021/03/08 10:17:07;;;;;;;29.58;14.20;;;;;;;3.67;100.00;98226.66;5028897;28;20107;-76
2021/03/08 10:19:34;;;;;;;39.47;14.10;;;;;;;3.89;100.00;98217.69;5039323;28;20049;-77
2021/03/08 10:22:01;;;;;;;27.65;13.85;;;;;;;4.20;100.00;98217.66;5060221;23;20079;-81
2021/03/08 10:24:38;;;;;;;24.98;13.05;;;;;;;4.23;100.00;98227.03;5041589;28;20484;-81
2021/03/08 10:27:11;;;;;;;27.58;13.55;;;;;;;3.88;100.00;98219.56;5056489;28;20037;-79
2021/03/08 10:29:39;;;;;;;26.23;13.40;;;;;;;4.12;100.00;98215.44;5036590;28;20140;-80
2021/03/08 10:32:11;;;;;;;27.60;13.15;;;;;;;4.44;100.00;98215.34;5025193;28;20092;-80
2021/03/08 10:34:38;;;;;;;26.15;12.77;;;;;;;4.49;100.00;98209.22;5019004;28;20040;-81
2021/03/08 10:37:09;;;;;;;23.30;12.18;;;;;;;4.35;100.00;98227.63;5018205;28;20052;-81
2021/03/08 10:39:39;;;;;;;23.33;11.63;;;;;;;4.44;100.00;98223.38;5000925;28;20045;-81
2021/03/08 10:42:06;;;;;;;22.63;11.18;;;;;;;4.90;100.00;98222.47;5017411;28;20105;-80
2021/03/08 10:44:35;;;;;;;23.05;11.38;;;;;;;5.57;100.00;98224.25;5005565;28;20108;-80
2021/03/08 10:47:11;;;;;;;195.73;21.13;;;;;;;7.72;100.00;98217.50;5017408;28;20034;-80
2021/03/08 10:49:52;;;;;;;23.42;10.95;;;;;;;8.86;100.00;98205.03;5018434;28;20101;-81
2021/03/08 10:52:20;;;;;;;21.85;9.98;;;;;;;11.21;100.00;98207.44;5017683;28;20641;-83
2021/03/08 10:54:47;;;;;;;23.48;10.98;;;;;;;13.48;100.00;98211.50;4998622;28;20243;-81
2021/03/08 10:57:14;;;;;;;19.23;8.93;;;;;;;14.77;62.24;98201.97;5016481;28;20192;-81
2021/03/08 10:59:52;;;;;;;23.27;10.63;;;;;;;12.20;68.13;98209.16;5014595;28;20053;-81
2021/03/08 11:02:19;;;;;;;19.48;9.18;;;;;;;10.51;100.00;98198.06;4998312;28;20101;-80
2021/03/08 11:04:51;;;;;;;19.55;9.95;;;;;;;8.33;100.00;98204.31;4999629;28;20461;-81
2021/03/08 11:07:34;;;;;;;17.00;9.25;;;;;;;6.81;100.00;98200.06;5000879;28;20038;-80
2021/03/08 11:10:38;;;;;;;16.33;9.82;;;;;;;5.58;100.00;98212.41;5002223;28;20042;-81
2021/03/08 11:13:06;;;;;;;23.17;10.38;;;;;;;5.32;100.00;98218.81;5033760;28;20046;-82
2021/03/08 11:15:36;;;;;;;20.23;10.55;;;;;;;4.74;100.00;98220.84;5020376;28;20034;-80
2021/03/08 11:18:21;;;;;;;22.02;10.20;;;;;;;4.58;100.00;98218.34;5022877;28;20565;-81
2021/03/08 11:20:49;;;;;;;19.10;10.07;;;;;;;4.48;100.00;98216.44;5024327;28;20049;-79
2021/03/08 11:23:24;;;;;;;17.85;10.02;;;;;;;4.56;100.00;98215.94;4995475;28;20077;-81
2021/03/08 11:25:50;;;;;;;19.52;10.05;;;;;;;4.54;100.00;98212.72;5037774;28;20041;-80
2021/03/08 11:28:18;;;;;;;21.40;10.27;;;;;;;5.90;100.00;98215.66;5039171;28;20076;-79
2021/03/08 11:30:50;;;;;;;18.13;8.65;;;;;;;7.85;100.00;98216.88;5032412;28;20099;-79
2021/03/08 11:33:18;;;;;;;17.38;7.93;;;;;;;10.22;100.00;98216.50;5034414;28;20046;-80
2021/03/08 11:35:51;;;;;;;12.88;6.53;;;;;;;9.68;97.22;98212.47;5036276;28;20092;-80
2021/03/08 11:38:25;;;;;;;10.32;6.05;;;;;;;9.36;75.52;98205.16;5035710;28;20041;-80